Time;durP1;ratioP1;P1;durP2;ratioP2;P2;SDS_P1;SDS_P2;PMS_P1;PMS_P2;Temp;Humidity;BMP_temperature;BMP_pressure;BME280_temperature;BME280_humidity;BME280_pressure;Samples;Min_cycle;Max_cycle;Signal;HPM_P1;HPM_P2
2022/05/21 00:12:09;;;;;;;5.47;2.70;;;;;;;19.20;71.96;99574.22;30855976;28;96858;-79
2022/05/21 00:27:09;;;;;;;3.65;2.47;;;;;;;18.87;72.72;99575.72;30865675;28;96702;-80
2022/05/21 00:42:09;;;;;;;4.30;2.75;;;;;;;18.67;73.32;99583.41;30875981;28;97360;-76
2022/05/21 00:57:37;;;;;;;4.40;2.78;;;;;;;18.64;73.42;99587.41;30874041;28;96673;-79
2022/05/21 01:12:48;;;;;;;3.87;2.13;;;;;;;18.65;73.27;99596.34;30871713;28;96799;-75
2022/05/21 01:27:50;;;;;;;4.43;2.63;;;;;;;18.55;73.25;99597.75;30871918;28;97529;-81
2022/05/21 01:58:10;;;;;;;4.63;2.93;;;;;;;18.64;71.46;99627.06;30869297;28;96710;-79
2022/05/21 02:13:21;;;;;;;3.60;2.30;;;;;;;18.68;70.36;99652.50;30867704;28;96699;-75
2022/05/21 02:28:21;;;;;;;4.27;2.10;;;;;;;18.76;69.50;99679.94;30865438;28;96716;-80
2022/05/21 02:43:21;;;;;;;3.25;2.40;;;;;;;18.74;68.62;99702.81;30863441;28;101118;-74
2022/05/21 02:58:23;;;;;;;6.97;3.03;;;;;;;18.59;68.09;99723.00;30860814;28;97580;-76
2022/05/21 03:13:23;;;;;;;7.40;2.97;;;;;;;18.37;67.26;99730.84;30859337;28;97337;-74
2022/05/21 03:28:23;;;;;;;3.33;2.60;;;;;;;18.06;66.03;99745.44;30859307;28;96908;-76
2022/05/21 03:43:24;;;;;;;5.30;2.13;;;;;;;17.76;65.84;99789.34;30855349;28;96770;-75
2022/05/21 03:58:25;;;;;;;6.32;1.10;;;;;;;17.47;59.60;99826.78;30854579;28;96772;-78
2022/05/21 04:13:28;;;;;;;1.83;1.50;;;;;;;17.17;59.77;99851.75;30853421;28;97384;-74
2022/05/21 04:28:30;;;;;;;7.67;1.33;;;;;;;16.90;59.86;99870.81;30851896;28;97223;-74
2022/05/21 04:43:30;;;;;;;2.15;1.00;;;;;;;16.75;58.52;99883.75;30850937;28;97055;-77
2022/05/21 04:58:31;;;;;;;5.35;1.40;;;;;;;16.67;59.62;99921.66;30850079;28;97314;-75
2022/05/21 05:13:32;;;;;;;2.17;0.70;;;;;;;16.71;56.92;99944.38;30856181;28;97158;-80
2022/05/21 05:28:32;;;;;;;0.95;0.60;;;;;;;16.69;55.10;99957.22;30869456;28;110651;-80
2022/05/21 05:43:32;;;;;;;2.08;0.60;;;;;;;16.80;54.07;99966.47;30868677;28;97417;-78
2022/05/21 06:13:52;;;;;;;1.73;0.70;;;;;;;17.13;51.22;99987.81;30864059;28;96953;-80
2022/05/21 06:28:53;;;;;;;0.80;0.80;;;;;;;17.40;49.92;99988.41;30861893;28;96725;-80
2022/05/21 06:43:53;;;;;;;1.17;0.85;;;;;;;17.52;50.35;100003.84;30859924;28;103958;-79
2022/05/21 06:58:53;;;;;;;2.25;1.00;;;;;;;17.77;48.34;99996.56;30857440;28;110818;-81
2022/05/21 07:13:54;;;;;;;6.68;1.05;;;;;;;18.21;47.04;100017.31;30858053;28;96735;-80
2022/05/21 07:28:56;;;;;;;1.63;0.98;;;;;;;18.42;45.76;100024.91;30856954;28;97226;-74
2022/05/21 07:43:57;;;;;;;2.90;1.00;;;;;;;19.59;44.34;100047.16;30856188;28;96715;-77
2022/05/21 07:58:57;;;;;;;3.80;0.93;;;;;;;19.69;43.11;100059.28;30852663;28;98610;-73
2022/05/21 08:13:58;;;;;;;3.47;0.95;;;;;;;20.17;39.46;100044.72;30852149;28;98212;-76
2022/05/21 08:28:59;;;;;;;4.25;0.70;;;;;;;20.76;39.36;100089.78;30852242;28;114618;-80
2022/05/21 08:44:07;;;;;;;0.87;0.60;;;;;;;20.82;38.49;100077.16;30855003;28;97391;-74
2022/05/21 08:59:08;;;;;;;5.47;0.80;;;;;;;20.77;38.37;100096.84;30871783;28;97061;-72
2022/05/21 09:14:31;;;;;;;3.40;1.60;;;;;;;20.77;36.85;100094.94;30870311;28;96864;-76
2022/05/21 09:29:35;;;;;;;1.90;0.80;;;;;;;21.49;35.21;100103.59;30871613;28;96813;-80
2022/05/21 10:00:21;;;;;;;2.10;0.67;;;;;;;21.58;34.24;100134.69;30865556;28;96713;-79
2022/05/21 10:15:29;;;;;;;1.07;0.70;;;;;;;22.64;31.67;100157.47;30864496;28;96723;-74
2022/05/21 10:30:48;;;;;;;2.50;0.80;;;;;;;22.33;32.45;100177.09;30863134;28;97303;-74
2022/05/21 10:46:09;;;;;;;3.40;0.70;;;;;;;21.43;32.96;100147.91;30860856;28;97471;-75
2022/05/21 11:01:28;;;;;;;4.37;0.80;;;;;;;22.08;32.73;100149.31;30860767;28;96924;-75
2022/05/21 11:16:47;;;;;;;2.53;0.80;;;;;;;22.15;32.83;100177.09;30856849;28;98496;-81
2022/05/21 11:47:13;;;;;;;2.23;0.80;;;;;;;22.66;30.88;100168.06;30858158;28;96743;-74
2022/05/21 12:02:23;;;;;;;2.10;1.17;;;;;;;22.34;31.54;100179.56;30862942;28;97978;-75
2022/05/21 12:17:43;;;;;;;1.37;0.70;;;;;;;22.70;30.73;100165.69;30855009;28;97631;-73
2022/05/21 12:32:45;;;;;;;1.33;0.80;;;;;;;22.58;31.06;100185.63;30853094;28;96845;-74
2022/05/21 12:47:45;;;;;;;1.87;1.00;;;;;;;21.68;33.55;100182.84;30850617;28;96738;-73
2022/05/21 13:02:49;;;;;;;1.17;0.60;;;;;;;21.44;33.62;100179.38;30850568;28;96600;-74
2022/05/21 13:18:03;;;;;;;3.43;0.60;;;;;;;21.17;34.57;100195.38;30848901;28;96868;-73
2022/05/21 13:33:13;;;;;;;2.90;0.80;;;;;;;21.33;33.76;100178.34;30854961;28;98432;-76
2022/05/21 13:48:18;;;;;;;2.50;1.00;;;;;;;20.65;34.92;100164.50;30867600;28;96746;-74
2022/05/21 14:03:27;;;;;;;3.87;1.07;;;;;;;21.23;34.96;100154.63;30866132;28;96712;-72
2022/05/21 14:18:34;;;;;;;1.83;1.17;;;;;;;21.08;34.62;100147.00;30863114;28;96710;-74
2022/05/21 14:34:13;;;;;;;1.90;0.87;;;;;;;21.38;34.53;100121.56;30863129;28;97360;-73
2022/05/21 14:49:13;;;;;;;2.20;0.90;;;;;;;20.73;34.35;100147.91;30855242;28;96937;-73
2022/05/21 15:04:14;;;;;;;2.33;0.82;;;;;;;19.85;35.15;100128.06;30860347;28;96789;-73
2022/05/21 15:19:14;;;;;;;4.53;0.98;;;;;;;19.56;37.22;100141.34;30857754;28;97533;-76
2022/05/21 15:34:14;;;;;;;3.00;1.38;;;;;;;19.78;37.85;100123.56;30857714;28;96697;-73
2022/05/21 15:49:16;;;;;;;2.40;0.98;;;;;;;19.74;35.88;100102.66;30855919;28;99936;-76
2022/05/21 16:04:16;;;;;;;5.13;1.10;;;;;;;19.75;36.60;100098.88;30854604;28;96864;-75
2022/05/21 16:19:17;;;;;;;1.10;0.85;;;;;;;19.54;37.77;100089.44;30851649;28;102891;-77
2022/05/21 16:34:17;;;;;;;2.58;1.05;;;;;;;19.15;38.16;100092.53;30851640;28;96809;-77
2022/05/21 16:49:18;;;;;;;4.90;1.30;;;;;;;19.24;38.80;100091.13;30851098;28;96789;-74
2022/05/21 17:04:19;;;;;;;7.53;1.95;;;;;;;18.89;39.44;100099.91;30852304;28;96663;-75
2022/05/21 17:19:19;;;;;;;1.45;1.05;;;;;;;18.60;39.73;100104.19;30881267;28;96681;-73
2022/05/21 17:34:19;;;;;;;3.25;1.20;;;;;;;18.61;39.97;100100.44;30870074;28;109758;-74
2022/05/21 17:49:20;;;;;;;3.28;1.55;;;;;;;17.93;41.83;100096.78;30867719;28;96768;-78
2022/05/21 18:04:21;;;;;;;3.47;1.45;;;;;;;17.35;43.71;100105.91;30866695;28;112455;-79
2022/05/21 18:19:22;;;;;;;4.85;1.83;;;;;;;17.18;46.46;100156.72;30863984;28;96725;-79
2022/05/21 18:34:23;;;;;;;3.90;1.40;;;;;;;16.24;55.42;100165.84;30863449;28;96767;-78
2022/05/21 18:49:25;;;;;;;3.03;1.40;;;;;;;15.64;54.67;100165.00;30860970;28;96729;-77
2022/05/21 19:04:26;;;;;;;3.43;1.20;;;;;;;15.29;54.75;100186.56;30861406;28;96641;-74
2022/05/21 19:19:29;;;;;;;2.58;1.33;;;;;;;15.08;55.72;100196.41;30859304;28;97484;-77
2022/05/21 19:34:29;;;;;;;4.67;1.20;;;;;;;14.86;56.34;100195.69;30856464;28;98527;-80
2022/05/21 19:49:30;;;;;;;2.78;1.45;;;;;;;14.48;57.61;100188.00;30855391;28;97363;-79
2022/05/21 20:04:31;;;;;;;2.50;1.80;;;;;;;14.15;58.65;100184.03;30852981;28;96720;-80
2022/05/21 20:19:31;;;;;;;6.63;1.98;;;;;;;13.79;59.62;100184.97;30852529;28;117805;-79
2022/05/21 20:34:31;;;;;;;4.35;2.10;;;;;;;13.47;61.14;100203.16;30852552;28;98091;-78
2022/05/21 20:49:35;;;;;;;2.83;1.73;;;;;;;13.28;62.39;100191.19;30868701;28;110640;-79
2022/05/21 21:04:35;;;;;;;;;;;;;;;13.44;62.30;100184.00;30872606;28;97554;-77
2022/05/21 21:19:36;;;;;;;4.90;2.13;;;;;;;13.57;61.86;100180.63;30872193;28;96757;-79
2022/05/21 21:34:36;;;;;;;2.70;1.83;;;;;;;13.57;61.66;100183.28;30869826;28;96771;-79
2022/05/21 21:49:38;;;;;;;4.78;2.13;;;;;;;13.27;62.90;100176.16;30869646;28;97075;-79
2022/05/21 22:04:38;;;;;;;9.53;2.57;;;;;;;13.04;63.86;100168.28;30869760;28;96724;-79
2022/05/21 22:19:38;;;;;;;6.72;3.05;;;;;;;13.24;63.95;100167.69;30866671;28;96706;-78
2022/05/21 22:34:39;;;;;;;4.97;2.70;;;;;;;12.99;64.29;100170.69;30865357;28;97553;-78
2022/05/21 22:49:39;;;;;;;7.95;3.65;;;;;;;12.90;65.70;100163.78;30861978;28;109667;-77
2022/05/21 23:04:39;;;;;;;5.63;3.20;;;;;;;12.67;66.69;100149.50;30862748;28;111319;-78
2022/05/21 23:19:41;;;;;;;11.43;3.60;;;;;;;12.47;67.21;100156.41;30860848;28;98083;-73
2022/05/21 23:34:41;;;;;;;7.00;3.07;;;;;;;12.50;66.63;100151.50;30859294;28;97583;-78
2022/05/21 23:49:42;;;;;;;8.48;3.60;;;;;;;12.22;67.76;100153.16;30858528;28;97289;-72
